createdAt,value
2023-08-20T00:00:40.009Z,23.32
2023-08-20T00:01:44.550Z,23.31
2023-08-20T00:02:48.881Z,23.29
2023-08-20T00:03:53.394Z,23.26
2023-08-20T00:05:11.816Z,23.23
2023-08-20T00:06:21.465Z,23.21
2023-08-20T00:07:24.613Z,23.19
2023-08-20T00:08:29.048Z,23.17
2023-08-20T00:09:33.572Z,23.15
2023-08-20T00:10:52.011Z,23.12
2023-08-20T00:11:55.411Z,23.08
2023-08-20T00:12:59.761Z,23.05
2023-08-20T00:14:04.207Z,23.04
2023-08-20T00:15:08.746Z,23.04
2023-08-20T00:16:27.312Z,23.04
2023-08-20T00:17:30.965Z,23.05
2023-08-20T00:18:38.074Z,23.04
2023-08-20T00:19:39.765Z,23.03
2023-08-20T00:20:44.291Z,23.02
2023-08-20T00:21:48.662Z,23.00
2023-08-20T00:22:53.121Z,22.99
2023-08-20T00:23:57.687Z,22.98
2023-08-20T00:25:02.016Z,22.98
2023-08-20T00:26:06.558Z,22.99
2023-08-20T00:27:24.904Z,22.99
2023-08-20T00:28:28.364Z,22.98
2023-08-20T00:29:32.702Z,22.96
2023-08-20T00:30:40.179Z,22.93
2023-08-20T00:31:43.736Z,22.88
2023-08-20T00:32:48.259Z,22.84
2023-08-20T00:34:04.790Z,22.80
2023-08-20T00:34:57.112Z,22.77
2023-08-20T00:36:15.601Z,22.74
2023-08-20T00:37:18.921Z,22.70
2023-08-20T00:38:23.284Z,22.67
2023-08-20T00:39:30.741Z,22.65
2023-08-20T00:40:34.342Z,22.64
2023-08-20T00:41:38.869Z,22.64
2023-08-20T00:42:43.315Z,22.65
2023-08-20T00:43:47.659Z,22.66
2023-08-20T00:44:52.154Z,22.67
2023-08-20T00:45:56.784Z,22.67
2023-08-20T00:47:01.162Z,22.66
2023-08-20T00:48:05.644Z,22.64
2023-08-20T00:49:10.169Z,22.62
2023-08-20T00:50:14.515Z,22.59
2023-08-20T00:51:19.091Z,22.58
2023-08-20T00:52:23.570Z,22.56
2023-08-20T00:53:28.800Z,22.55
2023-08-20T00:54:32.438Z,22.55
2023-08-20T00:55:36.943Z,22.53
2023-08-20T00:56:41.416Z,22.51
2023-08-20T00:57:45.951Z,22.48
2023-08-20T00:58:50.344Z,22.46
2023-08-20T00:59:54.697Z,22.44
2023-08-20T01:00:59.155Z,22.44
2023-08-20T01:02:03.647Z,22.45
2023-08-20T01:03:08.172Z,22.46
2023-08-20T01:04:12.580Z,22.46
2023-08-20T01:05:17.053Z,22.46
2023-08-20T01:06:21.513Z,22.47
2023-08-20T01:07:25.922Z,22.47
2023-08-20T01:08:30.444Z,22.47
2023-08-20T01:09:34.921Z,22.47
2023-08-20T01:10:39.275Z,22.47
2023-08-20T01:11:46.821Z,22.46
2023-08-20T01:12:50.335Z,22.46
2023-08-20T01:13:54.813Z,22.46
2023-08-20T01:14:59.269Z,22.46
2023-08-20T01:16:03.798Z,22.46
2023-08-20T01:17:22.248Z,22.44
2023-08-20T01:18:25.760Z,22.43
2023-08-20T01:19:30.159Z,22.40
2023-08-20T01:20:34.680Z,22.37
2023-08-20T01:21:39.062Z,22.34
2023-08-20T01:22:43.435Z,22.30
2023-08-20T01:23:47.954Z,22.26
2023-08-20T01:24:52.363Z,22.22
2023-08-20T01:25:56.876Z,22.19
2023-08-20T01:27:04.257Z,22.16
2023-08-20T01:28:07.861Z,22.15
2023-08-20T01:29:12.269Z,22.14
2023-08-20T01:30:16.779Z,22.13
2023-08-20T01:31:21.207Z,22.12
2023-08-20T01:32:25.674Z,22.13
2023-08-20T01:33:30.201Z,22.13
2023-08-20T01:34:34.563Z,22.13
2023-08-20T01:35:39.106Z,22.14
2023-08-20T01:36:43.570Z,22.14
2023-08-20T01:37:47.923Z,22.15
2023-08-20T01:38:52.394Z,22.15
2023-08-20T01:40:10.940Z,22.16
2023-08-20T01:41:14.511Z,22.18
2023-08-20T01:42:18.838Z,22.19
2023-08-20T01:43:23.315Z,22.20
2023-08-20T01:44:27.781Z,22.21
2023-08-20T01:45:32.147Z,22.22
2023-08-20T01:46:36.631Z,22.22
2023-08-20T01:47:41.113Z,22.23
2023-08-20T01:48:45.441Z,22.21
2023-08-20T01:49:49.883Z,22.20
2023-08-20T01:50:54.385Z,22.19
2023-08-20T01:51:58.844Z,22.18
2023-08-20T01:53:03.308Z,22.18
2023-08-20T01:54:07.770Z,22.18
2023-08-20T01:55:12.369Z,22.18
2023-08-20T01:56:16.869Z,22.18
2023-08-20T01:57:21.389Z,22.18
2023-08-20T01:58:25.692Z,22.18
2023-08-20T01:59:30.208Z,22.17
2023-08-20T02:00:34.629Z,22.16
2023-08-20T02:01:39.100Z,22.15
2023-08-20T02:02:43.566Z,22.12
2023-08-20T02:03:47.982Z,22.08
2023-08-20T02:04:55.495Z,22.06
2023-08-20T02:05:58.931Z,22.03
2023-08-20T02:07:03.505Z,22.00
2023-08-20T02:08:07.850Z,21.97
2023-08-20T02:09:26.397Z,21.92
2023-08-20T02:10:29.649Z,21.88
2023-08-20T02:11:34.028Z,21.85
2023-08-20T02:12:38.528Z,21.83
2023-08-20T02:13:43.047Z,21.80
2023-08-20T02:14:47.395Z,21.80
2023-08-20T02:15:51.919Z,21.81
2023-08-20T02:16:56.441Z,21.82
2023-08-20T02:18:00.977Z,21.82
2023-08-20T02:19:05.303Z,21.84
2023-08-20T02:20:09.771Z,21.85
2023-08-20T02:21:14.256Z,21.87
2023-08-20T02:22:18.603Z,21.89
2023-08-20T02:23:29.153Z,21.91
2023-08-20T02:24:32.227Z,21.92
2023-08-20T02:25:36.676Z,21.93
2023-08-20T02:26:41.028Z,21.93
2023-08-20T02:27:45.456Z,21.94
2023-08-20T02:28:49.867Z,21.94
2023-08-20T02:29:54.365Z,21.92
2023-08-20T02:30:59.018Z,21.92
2023-08-20T02:32:03.187Z,21.91
2023-08-20T02:33:07.715Z,21.91
2023-08-20T02:34:11.987Z,21.92
2023-08-20T02:35:16.435Z,21.92
2023-08-20T02:36:20.874Z,21.92
2023-08-20T02:37:25.269Z,21.94
2023-08-20T02:38:29.795Z,21.95
2023-08-20T02:39:34.218Z,21.96
2023-08-20T02:40:38.780Z,21.97
2023-08-20T02:41:43.200Z,21.98
2023-08-20T02:42:47.659Z,22.00
2023-08-20T02:43:52.136Z,22.01
2023-08-20T02:44:56.669Z,22.01
2023-08-20T02:46:01.118Z,22.00
2023-08-20T02:47:05.622Z,22.01
2023-08-20T02:48:16.133Z,22.01
2023-08-20T02:49:19.180Z,22.01
2023-08-20T02:50:23.640Z,22.00
2023-08-20T02:51:28.068Z,21.99
2023-08-20T02:52:32.416Z,21.98
2023-08-20T02:53:50.998Z,21.98
2023-08-20T02:54:54.599Z,21.96
2023-08-20T02:55:58.847Z,21.96
2023-08-20T02:57:06.343Z,21.96
2023-08-20T02:58:09.904Z,21.96
2023-08-20T02:59:14.332Z,21.96
2023-08-20T03:00:18.654Z,21.97
2023-08-20T03:01:23.246Z,21.99
2023-08-20T03:02:27.567Z,21.99
2023-08-20T03:03:32.047Z,22.00
2023-08-20T03:04:36.560Z,22.02
2023-08-20T03:05:40.912Z,22.02
2023-08-20T03:06:45.240Z,22.03
2023-08-20T03:07:49.727Z,22.02
2023-08-20T03:08:54.127Z,22.03
2023-08-20T03:09:58.636Z,22.02
2023-08-20T03:11:06.043Z,22.02
2023-08-20T03:12:09.578Z,22.02
2023-08-20T03:13:14.029Z,22.03
2023-08-20T03:14:21.442Z,22.04
2023-08-20T03:15:25.012Z,22.04
2023-08-20T03:16:29.458Z,22.04
2023-08-20T03:17:34.231Z,22.04
2023-08-20T03:18:38.210Z,22.04
2023-08-20T03:19:42.602Z,22.04
2023-08-20T03:20:47.147Z,22.03
2023-08-20T03:21:51.536Z,22.03
2023-08-20T03:22:56.075Z,22.03
2023-08-20T03:24:00.489Z,22.03
2023-08-20T03:25:07.886Z,22.03
2023-08-20T03:26:11.457Z,22.03
2023-08-20T03:27:15.858Z,22.03
2023-08-20T03:28:20.288Z,22.03
2023-08-20T03:29:24.752Z,22.04
2023-08-20T03:30:29.209Z,22.03
2023-08-20T03:31:33.735Z,22.03
2023-08-20T03:32:38.149Z,22.03
2023-08-20T03:33:42.579Z,22.04
2023-08-20T03:34:47.012Z,22.03
2023-08-20T03:35:51.353Z,22.03
2023-08-20T03:36:55.890Z,22.02
2023-08-20T03:38:00.293Z,22.01
2023-08-20T03:39:04.682Z,22.02
2023-08-20T03:40:09.156Z,22.02
2023-08-20T03:41:13.657Z,22.02
2023-08-20T03:42:18.088Z,22.02
2023-08-20T03:43:25.605Z,22.02
2023-08-20T03:44:29.305Z,22.01
2023-08-20T03:45:33.718Z,22.01
2023-08-20T03:46:38.008Z,22.01
2023-08-20T03:47:42.494Z,22.02
2023-08-20T03:48:46.995Z,22.02
2023-08-20T03:49:51.455Z,22.01
2023-08-20T03:50:55.886Z,22.00
2023-08-20T03:52:00.204Z,21.99
2023-08-20T03:53:04.795Z,21.99
2023-08-20T03:54:09.098Z,21.99
2023-08-20T03:55:13.662Z,21.99
2023-08-20T03:56:18.045Z,21.98
2023-08-20T03:57:22.386Z,21.98
2023-08-20T03:58:26.811Z,21.97
2023-08-20T03:59:31.364Z,21.95
2023-08-20T04:00:35.811Z,21.94
2023-08-20T04:01:40.289Z,21.93
2023-08-20T04:02:44.741Z,21.92
2023-08-20T04:03:49.140Z,21.91
2023-08-20T04:04:53.508Z,21.91
2023-08-20T04:05:57.895Z,21.91
2023-08-20T04:07:02.414Z,21.91
2023-08-20T04:08:06.847Z,21.91
2023-08-20T04:09:11.231Z,21.90
2023-08-20T04:10:15.746Z,21.89
2023-08-20T04:11:20.183Z,21.88
2023-08-20T04:12:24.723Z,21.88
2023-08-20T04:13:29.034Z,21.89
2023-08-20T04:14:33.552Z,21.89
2023-08-20T04:15:38.088Z,21.90
2023-08-20T04:16:42.447Z,21.89
2023-08-20T04:17:46.859Z,21.90
2023-08-20T04:18:51.204Z,21.90
2023-08-20T04:19:55.810Z,21.91
2023-08-20T04:21:00.137Z,21.92
2023-08-20T04:22:04.588Z,21.93
2023-08-20T04:23:08.989Z,21.92
2023-08-20T04:24:13.509Z,21.90
2023-08-20T04:25:17.802Z,21.90
2023-08-20T04:26:22.171Z,21.89
2023-08-20T04:27:26.706Z,21.88
2023-08-20T04:28:31.119Z,21.87
2023-08-20T04:29:38.563Z,21.85
2023-08-20T04:30:41.973Z,21.83
2023-08-20T04:31:46.548Z,21.82
2023-08-20T04:32:50.934Z,21.81
2023-08-20T04:33:55.256Z,21.80
2023-08-20T04:34:59.737Z,21.80
2023-08-20T04:36:04.194Z,21.80
2023-08-20T04:37:08.671Z,21.80
2023-08-20T04:38:19.096Z,21.79
2023-08-20T04:39:22.263Z,21.78
2023-08-20T04:40:26.652Z,21.78
2023-08-20T04:41:31.127Z,21.77
2023-08-20T04:42:35.552Z,21.75
2023-08-20T04:43:39.941Z,21.73
2023-08-20T04:44:44.379Z,21.72
2023-08-20T04:45:48.823Z,21.70
2023-08-20T04:46:53.194Z,21.69
2023-08-20T04:48:11.583Z,21.68
2023-08-20T04:49:20.961Z,21.67
2023-08-20T04:50:23.984Z,21.68
2023-08-20T04:51:28.375Z,21.69
2023-08-20T04:52:38.832Z,21.69
2023-08-20T04:53:41.911Z,21.71
2023-08-20T04:54:52.367Z,21.71
2023-08-20T04:55:55.404Z,21.72
2023-08-20T04:56:59.815Z,21.71
2023-08-20T04:58:04.237Z,21.70
2023-08-20T04:59:11.644Z,21.69
2023-08-20T05:00:15.335Z,21.68
2023-08-20T05:01:22.767Z,21.67
2023-08-20T05:02:27.854Z,21.68
2023-08-20T05:03:30.772Z,21.67
2023-08-20T05:04:35.197Z,21.68
2023-08-20T05:05:39.604Z,21.68
2023-08-20T05:06:44.036Z,21.68
2023-08-20T05:07:48.479Z,21.67
2023-08-20T05:08:52.923Z,21.66
2023-08-20T05:09:57.294Z,21.66
2023-08-20T05:11:01.838Z,21.65
2023-08-20T05:12:06.333Z,21.64
2023-08-20T05:13:10.651Z,21.64
2023-08-20T05:14:15.113Z,21.64
2023-08-20T05:15:22.566Z,21.64
2023-08-20T05:16:26.103Z,21.64
2023-08-20T05:17:30.689Z,21.62
2023-08-20T05:18:34.921Z,21.61
2023-08-20T05:19:39.438Z,21.60
2023-08-20T05:20:43.906Z,21.58
2023-08-20T05:21:48.346Z,21.57
2023-08-20T05:22:52.767Z,21.57
2023-08-20T05:23:57.231Z,21.56
2023-08-20T05:25:01.692Z,21.55
2023-08-20T05:26:12.125Z,21.54
2023-08-20T05:27:15.161Z,21.54
2023-08-20T05:28:19.625Z,21.54
2023-08-20T05:29:24.058Z,21.55
2023-08-20T05:30:28.510Z,21.55
2023-08-20T05:31:32.919Z,21.55
2023-08-20T05:32:37.594Z,21.54
2023-08-20T05:33:41.729Z,21.53
2023-08-20T05:34:46.114Z,21.53
2023-08-20T05:35:50.497Z,21.53
2023-08-20T05:36:55.040Z,21.55
2023-08-20T05:37:59.516Z,21.56
2023-08-20T05:39:18.096Z,21.57
2023-08-20T05:40:21.638Z,21.57
2023-08-20T05:41:25.972Z,21.58
2023-08-20T05:42:30.442Z,21.60
2023-08-20T05:43:34.895Z,21.62
2023-08-20T05:44:39.389Z,21.64
2023-08-20T05:45:43.747Z,21.66
2023-08-20T05:46:48.247Z,21.67
2023-08-20T05:47:52.856Z,21.69
2023-08-20T05:49:00.095Z,21.71
2023-08-20T05:50:17.625Z,21.73
2023-08-20T05:51:20.847Z,21.75
2023-08-20T05:52:25.273Z,21.77
2023-08-20T05:53:32.765Z,21.78
2023-08-20T05:54:36.423Z,21.80
2023-08-20T05:55:40.784Z,21.80
2023-08-20T05:56:45.153Z,21.79
2023-08-20T05:57:49.540Z,21.79
2023-08-20T05:58:54.047Z,21.79
2023-08-20T05:59:58.530Z,21.79
2023-08-20T06:01:02.996Z,21.77
2023-08-20T06:02:07.371Z,21.76
2023-08-20T06:03:11.869Z,21.74
2023-08-20T06:04:16.263Z,21.74
2023-08-20T06:05:20.722Z,21.74
2023-08-20T06:06:25.167Z,21.76
2023-08-20T06:07:35.571Z,21.79
2023-08-20T06:08:38.698Z,21.81
2023-08-20T06:09:43.092Z,21.84
2023-08-20T06:10:47.605Z,21.88
2023-08-20T06:11:52.017Z,21.94
2023-08-20T06:13:10.513Z,22.00
2023-08-20T06:14:13.929Z,22.05
2023-08-20T06:15:18.324Z,22.07
2023-08-20T06:16:22.878Z,22.07
2023-08-20T06:17:27.169Z,22.07
2023-08-20T06:18:31.593Z,22.06
2023-08-20T06:19:36.545Z,22.08
2023-08-20T06:20:40.566Z,22.09
2023-08-20T06:21:44.959Z,22.09
2023-08-20T06:24:17.009Z,22.08
2023-08-20T06:25:21.394Z,22.07
2023-08-20T06:26:25.769Z,22.06
2023-08-20T06:27:30.265Z,22.06
2023-08-20T06:28:34.692Z,22.06
2023-08-20T06:29:39.173Z,22.05
2023-08-20T06:30:43.638Z,22.04
2023-08-20T06:31:48.094Z,22.01
2023-08-20T06:32:52.513Z,21.96
2023-08-20T06:33:56.832Z,21.93
2023-08-20T06:35:01.375Z,21.90
2023-08-20T06:36:05.792Z,21.89
2023-08-20T06:37:10.181Z,21.87
2023-08-20T06:38:14.621Z,21.87
2023-08-20T06:39:19.102Z,21.88
2023-08-20T06:40:23.494Z,21.89
2023-08-20T06:41:27.878Z,21.90
2023-08-20T06:42:32.333Z,21.91
2023-08-20T06:43:36.754Z,21.92
2023-08-20T06:44:44.273Z,21.92
2023-08-20T06:45:47.905Z,21.92
2023-08-20T06:46:52.339Z,21.92
2023-08-20T06:47:56.673Z,21.92
2023-08-20T06:49:01.061Z,21.91
2023-08-20T06:50:05.485Z,21.90
2023-08-20T06:51:09.870Z,21.88
2023-08-20T06:52:14.228Z,21.85
2023-08-20T06:53:18.738Z,21.83
2023-08-20T06:54:23.069Z,21.82
2023-08-20T06:55:27.423Z,21.84
2023-08-20T06:56:46.825Z,21.84
2023-08-20T06:57:49.439Z,21.87
2023-08-20T06:58:53.957Z,21.90
2023-08-20T06:59:58.417Z,21.94
2023-08-20T07:01:02.857Z,21.98
2023-08-20T07:02:07.389Z,22.01
2023-08-20T07:03:11.875Z,22.02
2023-08-20T07:04:16.242Z,22.00
2023-08-20T07:05:20.651Z,21.97
2023-08-20T07:06:25.001Z,21.97
2023-08-20T07:07:29.451Z,21.97
2023-08-20T07:08:33.861Z,21.98
2023-08-20T07:09:38.249Z,22.00
2023-08-20T07:10:42.665Z,22.03
2023-08-20T07:11:48.630Z,22.05
2023-08-20T07:12:51.475Z,22.08
2023-08-20T07:13:55.936Z,22.11
2023-08-20T07:15:00.292Z,22.12
2023-08-20T07:16:04.736Z,22.12
2023-08-20T07:17:09.131Z,22.12
2023-08-20T07:18:13.578Z,22.12
2023-08-20T07:19:18.028Z,22.12
2023-08-20T07:20:22.367Z,22.12
2023-08-20T07:21:26.902Z,22.15
2023-08-20T07:22:31.268Z,22.20
2023-08-20T07:23:35.746Z,22.23
2023-08-20T07:24:40.166Z,22.28
2023-08-20T07:27:12.266Z,22.41
2023-08-20T07:28:16.592Z,22.44
2023-08-20T07:29:35.058Z,22.47
2023-08-20T07:30:38.296Z,22.51
2023-08-20T07:31:42.693Z,22.54
2023-08-20T07:32:47.109Z,22.57
2023-08-20T07:33:51.492Z,22.63
2023-08-20T07:34:55.953Z,22.66
2023-08-20T07:36:00.308Z,22.69
2023-08-20T07:37:04.758Z,22.72
2023-08-20T07:38:09.258Z,22.75
2023-08-20T07:39:18.651Z,22.77
2023-08-20T07:40:18.128Z,22.77
2023-08-20T07:41:22.623Z,22.74
2023-08-20T07:42:27.059Z,22.72
2023-08-20T07:43:31.425Z,22.69
2023-08-20T07:44:35.903Z,22.67
2023-08-20T07:45:40.376Z,22.66
2023-08-20T07:46:44.754Z,22.65
2023-08-20T07:47:49.283Z,22.64
2023-08-20T07:48:53.608Z,22.62
2023-08-20T07:49:58.048Z,22.61
2023-08-20T07:51:02.440Z,22.61
2023-08-20T07:52:06.862Z,22.60
2023-08-20T07:53:25.510Z,22.61
2023-08-20T07:54:28.958Z,22.62
2023-08-20T07:55:33.363Z,22.62
2023-08-20T07:56:37.712Z,22.62
2023-08-20T07:57:42.062Z,22.64
2023-08-20T07:58:46.590Z,22.68
2023-08-20T07:59:51.040Z,22.72
2023-08-20T08:00:55.613Z,22.73
2023-08-20T08:01:59.896Z,22.73
2023-08-20T08:03:04.448Z,22.72
2023-08-20T08:04:08.952Z,22.71
2023-08-20T08:05:13.248Z,22.69
2023-08-20T08:06:17.783Z,22.70
2023-08-20T08:07:22.195Z,22.72
2023-08-20T08:08:26.724Z,22.74
2023-08-20T08:09:31.080Z,22.75
2023-08-20T08:10:35.594Z,22.79
2023-08-20T08:11:40.077Z,22.85
2023-08-20T08:12:44.449Z,22.93
2023-08-20T08:13:48.861Z,22.98
2023-08-20T08:15:07.421Z,23.01
2023-08-20T08:16:10.742Z,23.01
2023-08-20T08:17:15.018Z,22.99
2023-08-20T08:18:19.551Z,22.97
2023-08-20T08:19:23.971Z,22.97
2023-08-20T08:20:28.317Z,22.96
2023-08-20T08:21:32.789Z,22.94
2023-08-20T08:22:37.156Z,22.93
2023-08-20T08:23:41.589Z,22.90
2023-08-20T08:24:46.086Z,22.88
2023-08-20T08:25:50.580Z,22.88
2023-08-20T08:26:54.975Z,22.90
2023-08-20T08:28:00.913Z,22.96
2023-08-20T08:29:03.753Z,23.01
2023-08-20T08:30:08.165Z,23.05
2023-08-20T08:31:12.724Z,23.06
2023-08-20T08:32:16.982Z,23.04
2023-08-20T08:33:21.538Z,22.98
2023-08-20T08:34:26.021Z,22.94
2023-08-20T08:35:30.338Z,22.92
2023-08-20T08:36:34.730Z,22.91
2023-08-20T08:37:39.144Z,22.90
2023-08-20T08:38:43.652Z,22.90
2023-08-20T08:39:48.024Z,22.91
2023-08-20T08:40:52.431Z,22.93
2023-08-20T08:41:56.953Z,22.97
2023-08-20T08:43:01.282Z,23.01
2023-08-20T08:44:05.729Z,23.01
2023-08-20T08:45:10.172Z,22.98
2023-08-20T08:46:14.609Z,22.97
2023-08-20T08:47:19.068Z,22.93
2023-08-20T08:48:23.541Z,22.92
2023-08-20T08:49:27.987Z,22.91
2023-08-20T08:50:32.419Z,22.93
2023-08-20T08:51:36.788Z,22.95
2023-08-20T08:52:41.230Z,22.97
2023-08-20T08:53:45.668Z,22.99
2023-08-20T08:54:50.158Z,23.01
2023-08-20T08:55:54.516Z,23.02
2023-08-20T08:56:58.955Z,23.02
2023-08-20T08:58:03.468Z,23.03
2023-08-20T08:59:07.886Z,23.04
2023-08-20T09:00:15.403Z,23.06
2023-08-20T09:01:19.048Z,23.11
2023-08-20T09:02:23.504Z,23.17
2023-08-20T09:03:27.916Z,23.26
2023-08-20T09:04:32.331Z,23.35
2023-08-20T09:05:36.784Z,23.42
2023-08-20T09:06:41.147Z,23.45
2023-08-20T09:07:45.664Z,23.46
2023-08-20T09:08:50.016Z,23.44
2023-08-20T09:09:54.439Z,23.42
2023-08-20T09:10:58.864Z,23.42
2023-08-20T09:12:03.282Z,23.43
2023-08-20T09:13:07.686Z,23.43
2023-08-20T09:14:12.197Z,23.42
2023-08-20T09:15:16.575Z,23.41
2023-08-20T09:16:20.997Z,23.42
2023-08-20T09:17:25.431Z,23.48
2023-08-20T09:18:29.841Z,23.58
2023-08-20T09:19:34.463Z,23.70
2023-08-20T09:20:38.740Z,23.84
2023-08-20T09:21:43.123Z,24.00
2023-08-20T09:22:47.548Z,24.16
2023-08-20T09:23:51.981Z,24.30
2023-08-20T09:24:56.405Z,24.37
2023-08-20T09:26:03.955Z,24.39
2023-08-20T09:27:07.660Z,24.41
2023-08-20T09:28:12.020Z,24.43
2023-08-20T09:29:16.522Z,24.45
2023-08-20T09:30:21.011Z,24.47
2023-08-20T09:31:25.375Z,24.48
2023-08-20T09:32:29.825Z,24.46
2023-08-20T09:33:34.214Z,24.43
2023-08-20T09:34:38.819Z,24.42
2023-08-20T09:35:43.236Z,24.42
2023-08-20T09:36:47.659Z,24.43
2023-08-20T09:37:52.063Z,24.47
2023-08-20T09:38:56.529Z,24.50
2023-08-20T09:40:00.985Z,24.54
2023-08-20T09:41:05.413Z,24.59
2023-08-20T09:42:09.829Z,24.62
2023-08-20T09:43:14.364Z,24.63
2023-08-20T09:44:18.707Z,24.64
2023-08-20T09:45:23.279Z,24.69
2023-08-20T09:46:27.741Z,24.75
2023-08-20T09:47:35.489Z,24.77
2023-08-20T09:48:38.755Z,24.80
2023-08-20T09:49:43.157Z,24.83
2023-08-20T09:50:47.575Z,24.88
2023-08-20T09:51:52.105Z,24.92
2023-08-20T09:52:57.364Z,24.93
2023-08-20T09:54:01.429Z,24.88
2023-08-20T09:55:05.819Z,24.79
2023-08-20T09:56:10.221Z,24.73
2023-08-20T09:57:14.750Z,24.68
2023-08-20T09:58:19.214Z,24.63
2023-08-20T09:59:23.596Z,24.57
2023-08-20T10:00:28.097Z,24.51
2023-08-20T10:01:32.501Z,24.48
2023-08-20T10:02:36.922Z,24.46
2023-08-20T10:03:41.319Z,24.46
2023-08-20T10:04:45.816Z,24.45
2023-08-20T10:05:50.172Z,24.44
2023-08-20T10:06:54.656Z,24.45
2023-08-20T10:07:59.039Z,24.45
2023-08-20T10:09:03.443Z,24.44
2023-08-20T10:10:07.995Z,24.42
2023-08-20T10:11:12.486Z,24.40
2023-08-20T10:12:16.945Z,24.38
2023-08-20T10:13:21.408Z,24.35
2023-08-20T10:14:25.872Z,24.33
2023-08-20T10:15:30.303Z,24.33
2023-08-20T10:16:34.733Z,24.30
2023-08-20T10:17:39.759Z,24.25
2023-08-20T10:18:43.663Z,24.23
2023-08-20T10:19:48.216Z,24.20
2023-08-20T10:20:52.728Z,24.17
2023-08-20T10:21:57.196Z,24.18
2023-08-20T10:23:01.579Z,24.18
2023-08-20T10:24:06.016Z,24.20
2023-08-20T10:25:10.491Z,24.23
2023-08-20T10:26:14.912Z,24.26
2023-08-20T10:27:19.449Z,24.30
2023-08-20T10:28:23.837Z,24.34
2023-08-20T10:29:28.363Z,24.36
2023-08-20T10:30:32.734Z,24.39
2023-08-20T10:31:37.209Z,24.39
2023-08-20T10:32:47.785Z,24.40
2023-08-20T10:33:50.770Z,24.39
2023-08-20T10:34:55.273Z,24.38
2023-08-20T10:35:59.847Z,24.40
2023-08-20T10:37:04.186Z,24.42
2023-08-20T10:38:08.726Z,24.44
2023-08-20T10:39:13.160Z,24.48
2023-08-20T10:40:20.598Z,24.54
2023-08-20T10:41:24.246Z,24.60
2023-08-20T10:42:28.705Z,24.65
2023-08-20T10:43:33.067Z,24.69
2023-08-20T10:44:37.510Z,24.70
2023-08-20T10:45:41.979Z,24.69
2023-08-20T10:46:46.466Z,24.65
2023-08-20T10:47:50.974Z,24.61
2023-08-20T10:48:55.449Z,24.55
2023-08-20T10:49:59.907Z,24.47
2023-08-20T10:51:04.297Z,24.40
2023-08-20T10:52:08.830Z,24.34
2023-08-20T10:53:13.250Z,24.26
2023-08-20T10:54:17.649Z,24.22
2023-08-20T10:55:22.153Z,24.21
2023-08-20T10:56:26.611Z,24.22
2023-08-20T10:57:31.125Z,24.24
2023-08-20T10:58:35.507Z,24.29
2023-08-20T10:59:40.033Z,24.35
2023-08-20T11:00:44.443Z,24.40
2023-08-20T11:01:48.957Z,24.44
2023-08-20T11:02:53.507Z,24.46
2023-08-20T11:03:57.833Z,24.49
2023-08-20T11:05:02.215Z,24.53
2023-08-20T11:06:06.807Z,24.58
2023-08-20T11:07:11.179Z,24.60
2023-08-20T11:08:15.615Z,24.62
2023-08-20T11:09:20.182Z,24.62
2023-08-20T11:10:24.657Z,24.63
2023-08-20T11:11:29.048Z,24.68
2023-08-20T11:12:33.573Z,24.71
2023-08-20T11:13:37.917Z,24.72
2023-08-20T11:14:42.719Z,24.72
2023-08-20T11:15:47.032Z,24.70
2023-08-20T11:16:51.612Z,24.70
2023-08-20T11:17:56.009Z,24.72
2023-08-20T11:19:00.502Z,24.75
2023-08-20T11:20:13.906Z,24.78
2023-08-20T11:21:09.455Z,24.85
2023-08-20T11:22:13.859Z,24.93
2023-08-20T11:23:18.332Z,24.99
2023-08-20T11:24:22.829Z,25.04
2023-08-20T11:25:27.402Z,25.09
2023-08-20T11:26:31.858Z,25.15
2023-08-20T11:27:36.553Z,25.22
2023-08-20T11:28:40.674Z,25.28
2023-08-20T11:29:45.232Z,25.29
2023-08-20T11:30:49.715Z,25.31
2023-08-20T11:31:54.086Z,25.34
2023-08-20T11:32:58.668Z,25.31
2023-08-20T11:34:02.979Z,25.29
2023-08-20T11:35:07.432Z,25.27
2023-08-20T11:36:11.895Z,25.24
2023-08-20T11:37:16.314Z,25.14
2023-08-20T11:38:20.704Z,25.13
2023-08-20T11:39:25.223Z,25.13
2023-08-20T11:40:29.779Z,25.16
2023-08-20T11:41:34.308Z,25.24
2023-08-20T11:42:38.797Z,25.33
2023-08-20T11:43:43.236Z,25.41
2023-08-20T11:44:47.768Z,25.49
2023-08-20T11:45:52.151Z,25.54
2023-08-20T11:46:56.765Z,25.61
2023-08-20T11:48:01.356Z,25.64
2023-08-20T11:49:05.704Z,25.67
2023-08-20T11:50:10.177Z,25.74
2023-08-20T11:51:14.561Z,25.85
2023-08-20T11:52:33.085Z,25.94
2023-08-20T11:53:36.308Z,26.10
2023-08-20T11:54:40.710Z,26.24
2023-08-20T11:55:45.208Z,26.39
2023-08-20T11:56:49.778Z,26.55
2023-08-20T11:57:54.290Z,26.69
2023-08-20T11:58:58.676Z,26.80
2023-08-20T12:00:03.259Z,26.86
2023-08-20T12:01:07.699Z,26.93
2023-08-20T12:02:12.408Z,27.03
2023-08-20T12:03:17.036Z,27.13
2023-08-20T12:04:24.379Z,27.25
2023-08-20T12:05:28.062Z,27.36
2023-08-20T12:06:32.441Z,27.43
2023-08-20T12:07:37.187Z,27.53
2023-08-20T12:08:41.457Z,27.58
2023-08-20T12:09:46.176Z,27.62
2023-08-20T12:10:50.381Z,27.62
2023-08-20T12:11:54.833Z,27.63
2023-08-20T12:12:59.457Z,27.66
2023-08-20T12:14:03.817Z,27.71
2023-08-20T12:15:09.356Z,27.72
2023-08-20T12:16:13.486Z,27.71
2023-08-20T12:17:17.930Z,27.74
2023-08-20T12:18:22.356Z,27.77
2023-08-20T12:19:26.864Z,27.78
2023-08-20T12:20:31.445Z,27.73
2023-08-20T12:21:35.842Z,27.64
2023-08-20T12:22:40.278Z,27.63
2023-08-20T12:23:44.832Z,27.55
2023-08-20T12:24:49.315Z,27.58
2023-08-20T12:25:53.791Z,27.60
2023-08-20T12:27:04.324Z,27.67
2023-08-20T12:28:07.494Z,27.76
2023-08-20T12:29:11.866Z,27.85
2023-08-20T12:30:16.269Z,27.99
2023-08-20T12:31:20.764Z,28.16
2023-08-20T12:32:26.192Z,28.33
2023-08-20T12:33:30.270Z,28.49
2023-08-20T12:34:34.715Z,28.66
2023-08-20T12:35:39.283Z,28.74
2023-08-20T12:36:43.778Z,28.73
2023-08-20T12:37:48.315Z,28.63
2023-08-20T12:38:52.699Z,28.57
2023-08-20T12:39:57.220Z,28.50
2023-08-20T12:41:01.844Z,28.47
2023-08-20T12:42:20.375Z,28.45
2023-08-20T12:43:23.566Z,28.52
2023-08-20T12:44:28.079Z,28.61
2023-08-20T12:45:32.538Z,28.68
2023-08-20T12:46:37.151Z,28.69
2023-08-20T12:47:44.574Z,28.62
2023-08-20T12:48:48.226Z,28.61
2023-08-20T12:49:52.644Z,28.68
2023-08-20T12:50:57.110Z,28.80
2023-08-20T12:52:01.550Z,28.85
2023-08-20T12:53:09.116Z,28.84
2023-08-20T12:54:12.906Z,28.90
2023-08-20T12:55:17.316Z,28.99
2023-08-20T12:56:21.974Z,29.06
2023-08-20T12:57:26.478Z,29.11
2023-08-20T12:58:30.945Z,29.21
2023-08-20T12:59:35.447Z,29.32
2023-08-20T13:00:39.953Z,29.45
2023-08-20T13:01:44.556Z,29.52
2023-08-20T13:02:49.110Z,29.58
2023-08-20T13:03:53.752Z,29.65
2023-08-20T13:04:58.093Z,29.65
2023-08-20T13:06:02.672Z,29.60
2023-08-20T13:07:10.118Z,29.50
2023-08-20T13:08:13.823Z,29.33
2023-08-20T13:09:18.239Z,29.20
2023-08-20T13:10:22.687Z,29.13
2023-08-20T13:11:27.464Z,29.12
2023-08-20T13:12:31.869Z,29.08
2023-08-20T13:13:36.321Z,29.04
2023-08-20T13:14:40.767Z,29.08
2023-08-20T13:15:45.413Z,29.19
2023-08-20T13:16:49.922Z,29.33
2023-08-20T13:17:54.404Z,29.36
2023-08-20T13:18:59.001Z,29.30
2023-08-20T13:20:03.597Z,29.21
2023-08-20T13:21:14.150Z,29.09
2023-08-20T13:22:17.364Z,28.96
2023-08-20T13:23:21.837Z,28.89
2023-08-20T13:24:26.318Z,28.86
2023-08-20T13:25:30.892Z,28.81
2023-08-20T13:26:35.292Z,28.75
2023-08-20T13:27:39.770Z,28.61
2023-08-20T13:28:44.290Z,28.46
2023-08-20T13:29:48.787Z,28.32
2023-08-20T13:30:53.395Z,28.15
2023-08-20T13:31:57.918Z,27.95
2023-08-20T13:33:02.691Z,27.81
2023-08-20T13:34:07.031Z,27.70
2023-08-20T13:35:14.632Z,27.65
2023-08-20T13:36:18.259Z,27.56
2023-08-20T13:37:22.688Z,27.46
2023-08-20T13:38:27.296Z,27.40
2023-08-20T13:39:31.672Z,27.35
2023-08-20T13:40:36.274Z,27.31
2023-08-20T13:41:40.645Z,27.30
2023-08-20T13:42:45.279Z,27.32
2023-08-20T13:43:49.854Z,27.30
2023-08-20T13:44:54.311Z,27.29
2023-08-20T13:45:58.897Z,27.30
2023-08-20T13:47:03.260Z,27.25
2023-08-20T13:48:07.872Z,27.16
2023-08-20T13:49:12.339Z,27.06
2023-08-20T13:50:16.815Z,26.92
2023-08-20T13:51:21.233Z,26.77
2023-08-20T13:52:31.661Z,26.68
2023-08-20T13:53:34.886Z,26.63
2023-08-20T13:54:39.246Z,26.59
2023-08-20T13:55:43.747Z,26.53
2023-08-20T13:56:48.365Z,26.47
2023-08-20T13:57:52.744Z,26.43
2023-08-20T13:58:57.299Z,26.40